createdAt,value
2018-11-28T05:00:47.858Z,24.17
2018-11-28T05:03:22.015Z,24.80
2018-11-28T05:05:50.098Z,24.40
2018-11-28T05:08:18.187Z,25.53
2018-11-28T05:10:46.291Z,25.47
2018-11-28T05:13:14.394Z,25.00
2018-11-28T05:15:42.474Z,26.10
2018-11-28T05:18:10.560Z,23.80
2018-11-28T05:20:38.643Z,23.47
2018-11-28T05:23:07.287Z,26.40
2018-11-28T05:25:35.729Z,22.98
2018-11-28T05:28:04.055Z,22.98
2018-11-28T05:30:32.925Z,23.07
2018-11-28T05:33:01.328Z,25.32
2018-11-28T05:35:39.169Z,29.60
2018-11-28T05:38:09.277Z,22.75
2018-11-28T05:40:37.702Z,22.93
2018-11-28T05:43:05.983Z,23.35
2018-11-28T05:45:34.332Z,23.23
2018-11-28T05:48:03.471Z,25.60
2018-11-28T05:50:31.552Z,22.63
2018-11-28T05:53:00.592Z,22.13
2018-11-28T05:55:28.824Z,23.37
2018-11-28T05:57:56.919Z,23.47
2018-11-28T06:00:25.890Z,27.63
2018-11-28T06:02:53.991Z,24.77
2018-11-28T06:05:22.073Z,22.53
2018-11-28T06:07:50.168Z,23.60
2018-11-28T06:10:19.459Z,24.52
2018-11-28T06:12:52.209Z,25.17
2018-11-28T06:15:20.296Z,26.27
2018-11-28T06:17:48.387Z,28.90
2018-11-28T06:20:16.676Z,28.10
2018-11-28T06:22:44.783Z,28.07
2018-11-28T06:25:16.120Z,22.67
2018-11-28T06:27:46.838Z,23.12
2018-11-28T06:30:19.339Z,25.10
2018-11-28T06:32:51.175Z,22.60
2018-11-28T06:35:17.537Z,25.60
2018-11-28T06:37:56.411Z,23.42
2018-11-28T06:40:24.505Z,24.73
2018-11-28T06:42:52.735Z,28.80
2018-11-28T06:45:21.840Z,25.17
2018-11-28T06:47:49.923Z,25.13
2018-11-28T06:50:18.847Z,23.90
2018-11-28T06:52:50.608Z,26.30
2018-11-28T06:55:21.542Z,22.00
2018-11-28T06:57:53.120Z,21.63
2018-11-28T07:00:22.087Z,23.13
2018-11-28T07:02:52.313Z,23.03
2018-11-28T07:05:23.040Z,22.73
2018-11-28T07:07:51.642Z,24.10
2018-11-28T07:10:20.576Z,21.60
2018-11-28T07:12:48.651Z,21.77
2018-11-28T07:15:17.788Z,23.95
2018-11-28T07:17:53.108Z,22.40
2018-11-28T07:20:21.191Z,25.23
2018-11-28T07:22:49.306Z,23.20
2018-11-28T07:25:19.556Z,24.37
2018-11-28T07:27:48.344Z,20.57
2018-11-28T07:30:17.575Z,20.20
2018-11-28T07:32:45.971Z,20.70
2018-11-28T07:35:14.664Z,21.23
2018-11-28T07:37:42.745Z,22.53
2018-11-28T07:40:26.158Z,21.03
2018-11-28T07:42:59.059Z,20.20
2018-11-28T07:45:28.332Z,21.42
2018-11-28T07:47:56.550Z,21.33
2018-11-28T07:50:24.623Z,21.43
2018-11-28T07:52:52.707Z,23.03
2018-11-28T07:55:20.782Z,21.07
2018-11-28T07:57:52.795Z,26.27
2018-11-28T08:00:21.933Z,21.60
2018-11-28T08:02:59.987Z,20.57
2018-11-28T08:05:28.090Z,20.13
2018-11-28T08:07:56.167Z,21.50
2018-11-28T08:10:25.935Z,19.37
2018-11-28T08:12:55.993Z,21.07
2018-11-28T08:15:24.064Z,19.60
2018-11-28T08:17:52.314Z,21.13
2018-11-28T08:20:20.538Z,20.32
2018-11-28T08:22:48.624Z,19.43
2018-11-28T08:25:17.465Z,20.47
2018-11-28T08:27:46.556Z,20.67
2018-11-28T08:30:15.961Z,20.10
2018-11-28T08:32:44.045Z,21.13
2018-11-28T08:35:12.727Z,21.10
2018-11-28T08:37:45.040Z,22.37
2018-11-28T08:40:16.347Z,23.30
2018-11-28T08:42:48.237Z,22.50
2018-11-28T08:45:17.708Z,24.77
2018-11-28T08:47:46.713Z,23.70
2018-11-28T08:50:19.345Z,27.33
2018-11-28T08:52:47.386Z,27.48
2018-11-28T08:55:16.534Z,24.75
2018-11-28T08:57:44.655Z,25.43
2018-11-28T09:00:14.749Z,25.43
2018-11-28T09:02:43.012Z,25.20
2018-11-28T09:05:12.148Z,24.50
2018-11-28T09:07:40.630Z,23.27
2018-11-28T09:10:16.519Z,21.27
2018-11-28T09:13:47.944Z,21.30
2018-11-28T09:16:16.035Z,19.87
2018-11-28T09:18:44.108Z,21.73
2018-11-28T09:21:12.188Z,21.17
2018-11-28T09:23:40.504Z,21.00
2018-11-28T09:26:39.517Z,20.40
2018-11-28T09:29:07.602Z,20.70
2018-11-28T09:31:35.715Z,21.43
2018-11-28T09:34:03.764Z,20.23
2018-11-28T09:36:31.832Z,20.87
2018-11-28T09:38:59.915Z,19.87
2018-11-28T09:41:28.005Z,20.17
2018-11-28T09:43:56.099Z,19.60
2018-11-28T09:46:24.171Z,20.67
2018-11-28T09:48:52.359Z,19.27
2018-11-28T09:51:20.444Z,19.95
2018-11-28T09:53:48.591Z,19.60
2018-11-28T09:56:16.664Z,20.93
2018-11-28T09:58:44.755Z,21.13
2018-11-28T10:01:12.851Z,21.67
2018-11-28T10:03:40.923Z,21.20
2018-11-28T10:06:10.500Z,20.43
2018-11-28T10:08:38.579Z,21.33
2018-11-28T10:11:06.651Z,21.43
2018-11-28T10:13:34.726Z,22.10
2018-11-28T10:16:02.828Z,22.83
2018-11-28T10:18:30.907Z,20.48
2018-11-28T10:20:58.992Z,22.20
2018-11-28T10:23:27.064Z,21.25
2018-11-28T10:25:55.148Z,21.20
2018-11-28T10:28:24.259Z,21.83
2018-11-28T10:30:52.492Z,22.37
2018-11-28T10:33:20.568Z,22.77
2018-11-28T10:35:48.651Z,22.60
2018-11-28T10:38:16.711Z,21.83
2018-11-28T10:40:45.993Z,23.23
2018-11-28T10:43:14.084Z,22.33
2018-11-28T10:45:42.155Z,22.20
2018-11-28T10:48:11.616Z,22.57
2018-11-28T10:50:39.720Z,24.17
2018-11-28T10:53:08.818Z,21.97
2018-11-28T10:55:37.005Z,22.73
2018-11-28T10:58:06.514Z,24.13
2018-11-28T11:00:39.992Z,23.50
2018-11-28T11:03:13.699Z,23.10
2018-11-28T11:05:47.304Z,23.90
2018-11-28T11:08:20.739Z,23.87
2018-11-28T11:10:54.211Z,24.97
2018-11-28T11:13:27.714Z,25.90
2018-11-28T11:15:58.253Z,26.25
2018-11-28T11:18:27.200Z,26.10
2018-11-28T11:20:55.207Z,25.70
2018-11-28T11:23:23.416Z,27.40
2018-11-28T11:25:52.010Z,27.03
2018-11-28T11:28:20.496Z,26.17
2018-11-28T11:30:48.634Z,26.67
2018-11-28T11:33:16.681Z,25.50
2018-11-28T11:35:44.837Z,25.07
2018-11-28T11:38:14.515Z,26.97
2018-11-28T11:40:44.679Z,25.97
2018-11-28T11:43:12.779Z,26.43
2018-11-28T11:45:40.852Z,26.27
2018-11-28T11:48:08.946Z,25.87
2018-11-28T11:50:37.021Z,26.33
2018-11-28T11:53:05.694Z,27.50
2018-11-28T11:55:34.158Z,27.80
2018-11-28T11:58:04.332Z,26.83
2018-11-28T12:00:32.417Z,26.37
2018-11-28T12:03:07.045Z,27.70
2018-11-28T12:05:36.332Z,27.47
2018-11-28T12:08:04.823Z,26.30
2018-11-28T12:10:32.912Z,25.13
2018-11-28T12:13:01.003Z,25.10
2018-11-28T12:15:29.068Z,25.73
2018-11-28T12:17:57.151Z,24.75
2018-11-28T12:20:33.061Z,24.77
2018-11-28T12:23:01.166Z,25.75
2018-11-28T12:25:29.243Z,27.80
2018-11-28T12:27:59.927Z,28.14
2018-11-28T12:30:28.009Z,28.00
2018-11-28T12:32:56.094Z,27.97
2018-11-28T12:35:24.180Z,25.33
2018-11-28T12:37:52.282Z,26.47
2018-11-28T12:40:20.371Z,25.37
2018-11-28T12:42:50.820Z,26.55
2018-11-28T12:45:19.864Z,27.37
2018-11-28T12:47:48.403Z,26.40
2018-11-28T12:50:19.944Z,27.65
2018-11-28T12:52:49.160Z,27.87
2018-11-28T12:55:17.748Z,26.97
2018-11-28T12:57:46.104Z,27.97
2018-11-28T13:00:18.584Z,26.97
2018-11-28T13:02:46.868Z,26.37
2018-11-28T13:05:19.348Z,26.63
2018-11-28T13:07:47.477Z,27.87
2018-11-28T13:10:19.632Z,26.57
2018-11-28T13:12:49.023Z,25.03
2018-11-28T13:15:18.139Z,27.97
2018-11-28T13:17:47.356Z,25.47
2018-11-28T13:20:17.372Z,26.37
2018-11-28T13:22:46.440Z,26.55
2018-11-28T13:25:15.764Z,27.27
2018-11-28T13:27:49.699Z,26.63
2018-11-28T13:30:18.785Z,26.13
2018-11-28T13:32:47.519Z,24.65
2018-11-28T13:35:21.484Z,24.53
2018-11-28T13:37:52.881Z,24.20
2018-11-28T13:40:22.154Z,23.60
2018-11-28T13:42:50.263Z,24.75
2018-11-28T13:45:19.438Z,24.27
2018-11-28T13:47:50.055Z,23.80
2018-11-28T13:50:19.384Z,23.67
2018-11-28T13:52:47.727Z,22.97
2018-11-28T13:56:56.737Z,22.83
2018-11-28T13:58:22.865Z,23.20
2018-11-28T14:00:50.947Z,21.97
2018-11-28T14:03:19.023Z,24.03
2018-11-28T14:05:47.161Z,21.63
2018-11-28T14:08:16.451Z,23.20
2018-11-28T14:10:44.863Z,21.53
2018-11-28T14:13:13.557Z,22.82
2018-11-28T14:15:41.782Z,22.10
2018-11-28T14:18:15.862Z,21.95
2018-11-28T14:20:45.026Z,22.43
2018-11-28T14:23:14.455Z,23.18
2018-11-28T14:25:42.531Z,21.73
2018-11-28T14:28:11.129Z,21.57
2018-11-28T14:30:39.315Z,25.10
2018-11-28T14:33:07.480Z,23.27
2018-11-28T14:35:35.563Z,22.33
2018-11-28T14:38:06.828Z,23.87
2018-11-28T14:40:35.223Z,21.35
2018-11-28T14:43:03.270Z,22.20
2018-11-28T14:45:32.798Z,21.87
2018-11-28T14:48:02.359Z,22.10
2018-11-28T14:50:30.686Z,23.00
2018-11-28T14:53:01.132Z,22.00
2018-11-28T14:55:30.257Z,22.10
2018-11-28T14:57:58.376Z,21.87
2018-11-28T15:00:27.426Z,22.95
2018-11-28T15:02:59.795Z,21.50
2018-11-28T15:06:33.428Z,22.60
2018-11-28T15:09:07.071Z,20.88
2018-11-28T15:11:35.287Z,22.47
2018-11-28T15:14:03.375Z,22.47
2018-11-28T15:16:31.468Z,22.33
2018-11-28T15:18:59.549Z,22.47
2018-11-28T15:21:27.745Z,22.63
2018-11-28T15:23:55.872Z,21.40
2018-11-28T15:26:23.971Z,23.47
2018-11-28T15:28:52.061Z,22.77
2018-11-28T15:31:20.158Z,24.43
2018-11-28T15:33:48.244Z,24.10
2018-11-28T15:36:23.500Z,22.40
2018-11-28T15:38:51.607Z,23.63
2018-11-28T15:41:19.699Z,22.77
2018-11-28T15:43:49.886Z,22.10
2018-11-28T15:46:19.432Z,23.20
2018-11-28T15:48:47.507Z,23.73
2018-11-28T15:51:15.571Z,22.67
2018-11-28T15:53:44.828Z,21.95
2018-11-28T15:56:12.942Z,25.07
2018-11-28T15:58:41.027Z,24.10
2018-11-28T16:01:09.146Z,25.10
2018-11-28T16:03:37.357Z,22.75
2018-11-28T16:06:12.651Z,22.97
2018-11-28T16:08:40.741Z,23.40
2018-11-28T16:11:13.404Z,23.27
2018-11-28T16:13:41.515Z,22.77
2018-11-28T16:16:09.653Z,22.10
2018-11-28T16:18:38.060Z,21.33
2018-11-28T16:21:06.344Z,21.03
2018-11-28T16:23:34.468Z,22.47
2018-11-28T16:26:02.666Z,23.35
2018-11-28T16:28:30.764Z,22.90
2018-11-28T16:30:58.843Z,24.13
2018-11-28T16:33:26.915Z,36.17
2018-11-28T16:35:56.437Z,24.45
2018-11-28T16:38:35.484Z,24.07
2018-11-28T16:41:03.691Z,24.57
2018-11-28T16:43:31.983Z,23.83
2018-11-28T16:46:12.847Z,28.23
2018-11-28T16:48:40.928Z,31.37
2018-11-28T16:51:09.477Z,30.48
2018-11-28T16:53:37.560Z,27.67
2018-11-28T16:56:06.772Z,26.37
2018-11-28T16:58:34.947Z,25.87
2018-11-28T17:01:03.031Z,23.40
2018-11-28T17:03:31.107Z,23.60
2018-11-28T17:05:59.179Z,24.03
2018-11-28T17:08:27.261Z,50.53
2018-11-28T17:10:56.530Z,24.73
2018-11-28T17:13:24.624Z,22.77
2018-11-28T17:15:52.736Z,23.53
2018-11-28T17:18:20.815Z,22.70
2018-11-28T17:20:48.892Z,21.90
2018-11-28T17:23:16.979Z,22.30
2018-11-28T17:25:45.063Z,22.53
2018-11-28T17:28:13.139Z,23.50
2018-11-28T17:30:41.231Z,21.80
2018-11-28T17:33:09.296Z,22.10
2018-11-28T17:35:37.379Z,26.73
2018-11-28T17:38:06.332Z,22.23
2018-11-28T17:40:34.448Z,22.80
2018-11-28T17:43:07.629Z,23.77
2018-11-28T17:45:35.735Z,22.90
2018-11-28T17:48:06.940Z,22.93
2018-11-28T17:50:35.240Z,22.27
2018-11-28T17:53:09.921Z,23.10
2018-11-28T17:55:40.961Z,23.50
2018-11-28T17:58:09.399Z,23.63
2018-11-28T18:00:39.040Z,24.33
2018-11-28T18:03:10.339Z,23.92
2018-11-28T18:05:40.565Z,22.57
2018-11-28T18:08:08.715Z,21.12
2018-11-28T18:10:37.327Z,22.30
2018-11-28T18:13:13.403Z,22.63
2018-11-28T18:15:46.228Z,21.97
2018-11-28T18:18:17.138Z,20.80
2018-11-28T18:20:50.194Z,21.63
2018-11-28T18:23:23.409Z,20.87
2018-11-28T18:25:53.838Z,22.23
2018-11-28T18:28:23.518Z,21.42
2018-11-28T18:30:53.174Z,23.30
2018-11-28T18:33:23.384Z,23.42
2018-11-28T18:35:51.468Z,21.37
2018-11-28T18:38:19.621Z,20.70
2018-11-28T18:40:48.912Z,22.33
2018-11-28T18:43:16.999Z,22.30
2018-11-28T18:45:49.918Z,23.57
2018-11-28T18:48:18.124Z,22.13
2018-11-28T18:50:46.267Z,20.53
2018-11-28T18:53:14.395Z,22.97
2018-11-28T18:55:42.476Z,25.63
2018-11-28T18:58:11.502Z,22.50
2018-11-28T19:00:40.720Z,22.17
2018-11-28T19:03:08.858Z,23.03
2018-11-28T19:05:45.264Z,21.53
2018-11-28T19:08:14.500Z,25.62
2018-11-28T19:10:42.729Z,23.93
2018-11-28T19:13:10.830Z,23.67
2018-11-28T19:15:38.954Z,26.73
2018-11-28T19:18:07.213Z,29.00
2018-11-28T19:20:35.301Z,25.10
2018-11-28T19:23:03.379Z,26.93
2018-11-28T19:25:32.184Z,24.80
2018-11-28T19:28:00.328Z,26.90
2018-11-28T19:30:35.540Z,26.70
2018-11-28T19:33:06.235Z,26.70
2018-11-28T19:35:36.358Z,27.03
2018-11-28T19:38:08.667Z,32.47
2018-11-28T19:40:56.680Z,24.50
2018-11-28T19:43:26.018Z,25.07
2018-11-28T19:45:54.296Z,24.43
2018-11-28T19:48:24.381Z,24.43
2018-11-28T19:50:53.241Z,26.17
2018-11-28T19:53:25.450Z,27.07
2018-11-28T19:55:53.540Z,25.57
2018-11-28T19:58:29.251Z,25.47
2018-11-28T20:00:57.702Z,26.23
2018-11-28T20:03:32.512Z,26.20
2018-11-28T20:06:00.811Z,28.83
2018-11-28T20:08:31.768Z,26.77
2018-11-28T20:10:59.983Z,25.23
2018-11-28T20:13:28.132Z,29.70
2018-11-28T20:15:56.212Z,25.37
2018-11-28T20:18:24.423Z,26.30
2018-11-28T20:20:52.658Z,25.55
2018-11-28T20:23:20.707Z,26.77
2018-11-28T20:25:48.828Z,24.17
2018-11-28T20:28:18.593Z,24.63
2018-11-28T20:30:49.051Z,23.12
2018-11-28T20:33:18.706Z,23.57
2018-11-28T20:35:48.953Z,24.60
2018-11-28T20:38:24.015Z,26.97
2018-11-28T20:40:52.196Z,27.43
2018-11-28T20:43:20.375Z,24.90
2018-11-28T20:45:48.455Z,26.20
2018-11-28T20:48:18.692Z,24.27
2018-11-28T20:50:46.816Z,25.67
2018-11-28T20:53:19.028Z,25.45
2018-11-28T20:55:47.392Z,23.90
2018-11-28T20:58:15.575Z,23.83
2018-11-28T21:00:43.660Z,23.40
2018-11-28T21:03:11.773Z,22.07
2018-11-28T21:05:42.017Z,21.90
2018-11-28T21:08:11.216Z,21.50
2018-11-28T21:10:41.518Z,22.13
2018-11-28T21:13:12.448Z,22.07
2018-11-28T21:15:41.491Z,21.37
2018-11-28T21:18:09.860Z,21.37
2018-11-28T21:20:38.860Z,21.12
2018-11-28T21:23:10.484Z,20.57
2018-11-28T21:25:38.587Z,21.00
2018-11-28T21:28:07.159Z,21.37
2018-11-28T21:30:35.382Z,20.48
2018-11-28T21:33:03.680Z,20.93
2018-11-28T21:35:38.921Z,21.73
2018-11-28T21:38:07.835Z,21.10
2018-11-28T21:40:37.318Z,20.83
2018-11-28T21:43:05.908Z,20.85
2018-11-28T21:45:34.084Z,20.30
2018-11-28T21:48:02.220Z,20.83
2018-11-28T21:50:30.822Z,20.10
2018-11-28T21:52:58.926Z,20.27
2018-11-28T21:55:27.173Z,20.77
2018-11-28T21:57:55.432Z,21.03
2018-11-28T22:00:24.676Z,21.30
2018-11-28T22:02:53.385Z,21.27
2018-11-28T22:05:21.819Z,20.73
2018-11-28T22:07:49.908Z,21.17
2018-11-28T22:10:19.813Z,20.07
2018-11-28T22:12:47.899Z,20.73
2018-11-28T22:15:17.432Z,19.65
2018-11-28T22:17:50.391Z,20.40
2018-11-28T22:20:18.489Z,19.73
2018-11-28T22:22:46.628Z,19.77
2018-11-28T22:25:18.704Z,20.00
2018-11-28T22:27:46.803Z,19.67
2018-11-28T22:30:15.851Z,19.90
2018-11-28T22:32:44.008Z,19.90
2018-11-28T22:35:13.414Z,19.80
2018-11-28T22:37:41.517Z,20.70
2018-11-28T22:40:10.939Z,19.27
2018-11-28T22:42:39.052Z,19.17
2018-11-28T22:45:11.859Z,21.70
2018-11-28T22:47:39.951Z,20.73
2018-11-28T22:50:09.347Z,20.83
2018-11-28T22:52:37.447Z,19.43
2018-11-28T22:55:07.323Z,19.90
2018-11-28T22:57:35.913Z,20.92
2018-11-28T23:00:05.947Z,19.93
2018-11-28T23:02:53.938Z,20.60
2018-11-28T23:05:23.275Z,20.30
2018-11-28T23:07:51.359Z,19.63
2018-11-28T23:10:19.467Z,19.62
2018-11-28T23:12:47.571Z,20.80
2018-11-28T23:15:15.663Z,19.97
2018-11-28T23:17:45.479Z,19.70
2018-11-28T23:20:13.611Z,19.77
2018-11-28T23:22:41.700Z,19.47
2018-11-28T23:25:11.736Z,20.30
2018-11-28T23:27:39.827Z,20.80
2018-11-28T23:30:15.576Z,22.07
2018-11-28T23:32:44.590Z,20.40
2018-11-28T23:35:12.784Z,20.77
2018-11-28T23:37:41.828Z,20.23
2018-11-28T23:40:15.543Z,20.52
2018-11-28T23:42:43.671Z,20.37
2018-11-28T23:45:12.954Z,20.13
2018-11-28T23:47:41.049Z,20.33
2018-11-28T23:50:11.415Z,20.33
2018-11-28T23:52:39.533Z,21.27
2018-11-28T23:55:19.275Z,21.73
2018-11-28T23:57:47.397Z,21.50
